Time;durP1;ratioP1;P1;durP2;ratioP2;P2;SDS_P1;SDS_P2;PMS_P1;PMS_P2;Temp;Humidity;BMP_temperature;BMP_pressure;BME280_temperature;BME280_humidity;BME280_pressure;Samples;Min_cycle;Max_cycle;Signal;HPM_P1;HPM_P2
2022/06/09 00:00:52;;;;;;;116.20;33.22;;;;;;;;;;5089420;28;20090;-63
2022/06/09 00:03:20;;;;;;;108.97;30.23;;;;;;;;;;5080608;28;20387;-63
2022/06/09 00:05:46;;;;;;;114.03;30.88;;;;;;;;;;5079005;28;20380;-63
2022/06/09 00:08:13;;;;;;;110.88;33.28;;;;;;;;;;5095270;28;20124;-63
2022/06/09 00:10:41;;;;;;;93.95;32.80;;;;;;;;;;5098032;28;20043;-63
2022/06/09 00:13:07;;;;;;;102.65;32.85;;;;;;;;;;5099314;28;20040;-64
2022/06/09 00:15:34;;;;;;;131.43;37.17;;;;;;;;;;5097312;28;20510;-63
2022/06/09 00:18:00;;;;;;;105.43;34.83;;;;;;;;;;5099856;28;20059;-64
2022/06/09 00:20:26;;;;;;;136.65;37.55;;;;;;;;;;5078704;28;21670;-63
2022/06/09 00:22:52;;;;;;;102.55;34.00;;;;;;;;;;5099544;28;20040;-63
2022/06/09 00:25:19;;;;;;;105.85;36.75;;;;;;;;;;5082309;28;20047;-63
2022/06/09 00:27:45;;;;;;;117.35;36.15;;;;;;;;;;5102660;28;20399;-63
2022/06/09 00:30:12;;;;;;;93.95;36.25;;;;;;;;;;5101481;28;20135;-63
2022/06/09 00:32:39;;;;;;;118.35;37.28;;;;;;;;;;5080775;28;20048;-64
2022/06/09 00:35:06;;;;;;;88.20;35.17;;;;;;;;;;5101597;28;20143;-64
2022/06/09 00:37:33;;;;;;;104.22;35.25;;;;;;;;;;5099834;28;20469;-63
2022/06/09 00:39:59;;;;;;;92.50;33.83;;;;;;;;;;5096544;28;20084;-63
2022/06/09 00:42:26;;;;;;;121.22;37.22;;;;;;;;;;5102895;28;20482;-63
2022/06/09 00:44:52;;;;;;;93.28;36.17;;;;;;;;;;5100565;28;20096;-63
2022/06/09 00:47:21;;;;;;;98.82;36.70;;;;;;;;;;5097711;28;20500;-63
2022/06/09 00:49:56;;;;;;;115.10;42.55;;;;;;;;;;5097348;28;20157;-63
2022/06/09 00:52:24;;;;;;;108.68;39.53;;;;;;;;;;5101744;28;20046;-63
2022/06/09 00:54:53;;;;;;;100.22;37.38;;;;;;;;;;5102593;28;20501;-63
2022/06/09 00:57:23;;;;;;;102.13;38.03;;;;;;;;;;5097787;27;20047;-63
2022/06/09 00:59:52;;;;;;;130.77;42.10;;;;;;;;;;5096581;28;21393;-63
2022/06/09 01:02:19;;;;;;;137.85;42.85;;;;;;;;;;5080663;28;20043;-63
2022/06/09 01:04:47;;;;;;;116.30;39.92;;;;;;;;;;5096196;28;20040;-64
2022/06/09 01:07:17;;;;;;;103.90;36.08;;;;;;;;;;5095464;28;20051;-63
2022/06/09 01:09:43;;;;;;;137.52;41.80;;;;;;;;;;5095646;28;20032;-63
2022/06/09 01:12:27;;;;;;;117.82;38.67;;;;;;;;;;5102465;28;20070;-63
2022/06/09 01:14:57;;;;;;;111.10;36.63;;;;;;;;;;5098424;28;20657;-63
2022/06/09 01:17:30;;;;;;;86.45;34.50;;;;;;;;;;5099519;28;20059;-63
2022/06/09 01:19:56;;;;;;;110.77;34.27;;;;;;;;;;5099989;28;21777;-63
2022/06/09 01:22:42;;;;;;;79.82;30.33;;;;;;;;;;5098264;28;20062;-63
2022/06/09 01:25:39;;;;;;;66.30;26.67;;;;;;;;;;5099583;28;20555;-63
2022/06/09 01:28:29;;;;;;;92.82;26.80;;;;;;;;;;5100992;28;20438;-63
2022/06/09 01:31:01;;;;;;;92.68;27.20;;;;;;;;;;5099397;28;20055;-63
2022/06/09 01:33:40;;;;;;;72.97;27.35;;;;;;;;;;5098706;28;20047;-63
2022/06/09 01:36:19;;;;;;;68.53;27.20;;;;;;;;;;5096116;28;20058;-63
2022/06/09 01:38:48;;;;;;;115.25;30.40;;;;;;;;;;5097755;28;20048;-63
2022/06/09 01:41:15;;;;;;;69.50;25.90;;;;;;;;;;5100168;28;20551;-63
2022/06/09 01:43:42;;;;;;;51.67;24.45;;;;;;;;;;5081677;28;20076;-63
2022/06/09 01:46:09;;;;;;;51.15;25.55;;;;;;;;;;5075944;28;20054;-63
2022/06/09 01:48:36;;;;;;;116.18;32.47;;;;;;;;;;5077084;28;20123;-63
2022/06/09 01:51:05;;;;;;;69.57;28.45;;;;;;;;;;5096640;28;20071;-63
2022/06/09 01:53:35;;;;;;;188.82;28.23;;;;;;;;;;5087646;28;20051;-63
2022/06/09 01:56:05;;;;;;;414.15;35.85;;;;;;;;;;5095611;28;20046;-63
2022/06/09 01:58:34;;;;;;;529.47;32.97;;;;;;;;;;5098368;28;20402;-63
2022/06/09 02:01:01;;;;;;;633.65;37.83;;;;;;;;;;5101932;28;20130;-63
2022/06/09 02:03:30;;;;;;;522.88;27.60;;;;;;;;;;5095582;28;20062;-63
2022/06/09 02:05:58;;;;;;;589.97;34.88;;;;;;;;;;5089522;28;20048;-63
2022/06/09 02:08:25;;;;;;;420.83;27.48;;;;;;;;;;5094367;28;20036;-63
2022/06/09 02:11:09;;;;;;;365.05;24.65;;;;;;;;;;5098684;28;20054;-63
2022/06/09 02:13:39;;;;;;;182.88;21.38;;;;;;;;;;5096705;28;20051;-63
2022/06/09 02:16:07;;;;;;;241.00;27.45;;;;;;;;;;5097112;28;20043;-63
2022/06/09 02:18:36;;;;;;;196.95;27.92;;;;;;;;;;5094427;28;20043;-63
2022/06/09 02:21:05;;;;;;;259.92;37.92;;;;;;;;;;5096591;28;20529;-63
2022/06/09 02:23:31;;;;;;;179.70;34.05;;;;;;;;;;5095077;28;20621;-63
2022/06/09 02:25:57;;;;;;;87.05;28.30;;;;;;;;;;5096145;28;20361;-63
2022/06/09 02:28:24;;;;;;;179.70;34.78;;;;;;;;;;5098834;28;20065;-63
2022/06/09 02:30:50;;;;;;;156.20;37.35;;;;;;;;;;5096432;28;20048;-63
2022/06/09 02:33:17;;;;;;;141.30;36.40;;;;;;;;;;5095424;28;20047;-63
2022/06/09 02:35:43;;;;;;;104.93;32.42;;;;;;;;;;5097141;28;20043;-63
2022/06/09 02:38:09;;;;;;;110.95;33.45;;;;;;;;;;5095883;28;20040;-63
2022/06/09 02:40:35;;;;;;;140.05;38.90;;;;;;;;;;5094463;28;20104;-63
2022/06/09 02:43:01;;;;;;;137.80;37.28;;;;;;;;;;5096888;28;20036;-63
2022/06/09 02:45:28;;;;;;;92.15;34.42;;;;;;;;;;5074805;28;20135;-63
2022/06/09 02:47:55;;;;;;;74.95;31.48;;;;;;;;;;5075923;28;20048;-63
2022/06/09 02:50:21;;;;;;;168.13;43.42;;;;;;;;;;5078489;28;20044;-63
2022/06/09 02:52:47;;;;;;;105.38;38.55;;;;;;;;;;5075483;28;20055;-63
2022/06/09 02:55:14;;;;;;;124.18;36.05;;;;;;;;;;5076850;28;20153;-63
2022/06/09 02:57:40;;;;;;;149.43;35.88;;;;;;;;;;5055777;28;20152;-63
2022/06/09 03:00:07;;;;;;;125.18;33.05;;;;;;;;;;5074684;28;20446;-63
2022/06/09 03:02:34;;;;;;;103.32;32.78;;;;;;;;;;5074596;28;20040;-63
2022/06/09 03:05:00;;;;;;;96.55;30.48;;;;;;;;;;5074071;28;20511;-63
2022/06/09 03:07:26;;;;;;;61.30;29.00;;;;;;;;;;5073785;28;20048;-63
2022/06/09 03:09:53;;;;;;;89.25;31.35;;;;;;;;;;5074643;28;20063;-63
2022/06/09 03:12:20;;;;;;;139.50;37.05;;;;;;;;;;5074914;28;20044;-63
2022/06/09 03:14:47;;;;;;;112.35;34.25;;;;;;;;;;5073223;28;20109;-63
2022/06/09 03:17:13;;;;;;;67.80;30.48;;;;;;;;;;5073760;28;20151;-63
2022/06/09 03:19:39;;;;;;;93.35;33.15;;;;;;;;;;5076578;28;20457;-63
2022/06/09 03:22:05;;;;;;;63.17;28.40;;;;;;;;;;5077973;28;20071;-63
2022/06/09 03:24:31;;;;;;;69.30;30.45;;;;;;;;;;5054207;28;20080;-63
2022/06/09 03:26:58;;;;;;;63.50;28.38;;;;;;;;;;5073705;28;20440;-63
2022/06/09 03:29:24;;;;;;;54.65;27.88;;;;;;;;;;5072147;28;20048;-63
2022/06/09 03:31:51;;;;;;;63.97;29.33;;;;;;;;;;5073778;28;20412;-63
2022/06/09 03:34:18;;;;;;;46.83;25.55;;;;;;;;;;5076240;28;20491;-63
2022/06/09 03:36:45;;;;;;;39.17;23.50;;;;;;;;;;5075284;28;20049;-63
2022/06/09 03:39:12;;;;;;;42.78;24.42;;;;;;;;;;5078072;28;20059;-63
2022/06/09 03:41:38;;;;;;;51.22;26.25;;;;;;;;;;5070455;28;20051;-64
2022/06/09 03:44:05;;;;;;;46.92;24.40;;;;;;;;;;5079444;28;20055;-63
2022/06/09 03:46:31;;;;;;;49.30;25.98;;;;;;;;;;5093617;28;20079;-63
2022/06/09 03:48:57;;;;;;;50.25;26.40;;;;;;;;;;5096182;28;20134;-63
2022/06/09 03:51:24;;;;;;;47.15;26.88;;;;;;;;;;5089695;28;20056;-63
2022/06/09 03:53:50;;;;;;;49.03;26.63;;;;;;;;;;5102290;28;20126;-63
2022/06/09 03:56:17;;;;;;;51.10;28.20;;;;;;;;;;5100921;28;20053;-63
2022/06/09 03:58:44;;;;;;;47.47;29.02;;;;;;;;;;5098185;28;20055;-63
2022/06/09 04:01:13;;;;;;;49.05;30.58;;;;;;;;;;5102759;28;20089;-63
2022/06/09 04:03:41;;;;;;;65.30;34.90;;;;;;;;;;5097589;28;20043;-63
2022/06/09 04:06:12;;;;;;;54.65;34.78;;;;;;;;;;5104944;28;20174;-63
2022/06/09 04:08:38;;;;;;;66.05;36.97;;;;;;;;;;5087639;28;20105;-63
2022/06/09 04:11:04;;;;;;;70.82;39.75;;;;;;;;;;5106991;28;20039;-63
2022/06/09 04:13:31;;;;;;;79.97;42.95;;;;;;;;;;5106242;28;20043;-63
2022/06/09 04:15:57;;;;;;;88.53;45.53;;;;;;;;;;5106425;28;20036;-63
2022/06/09 04:18:23;;;;;;;90.32;46.42;;;;;;;;;;5102025;28;20065;-63
2022/06/09 04:20:49;;;;;;;100.25;47.70;;;;;;;;;;5083586;28;20063;-63
2022/06/09 04:23:15;;;;;;;102.43;46.15;;;;;;;;;;5099647;28;20496;-63
2022/06/09 04:25:41;;;;;;;87.72;46.10;;;;;;;;;;5097148;28;20332;-63
2022/06/09 04:28:08;;;;;;;76.65;45.30;;;;;;;;;;5101158;28;20487;-63
2022/06/09 04:30:34;;;;;;;92.18;49.72;;;;;;;;;;5101176;28;20039;-63
2022/06/09 04:33:00;;;;;;;78.80;45.63;;;;;;;;;;5049093;28;20071;-63
2022/06/09 04:35:26;;;;;;;84.85;47.08;;;;;;;;;;5099933;28;20077;-62
2022/06/09 04:38:02;;;;;;;77.18;47.00;;;;;;;;;;5096896;28;20036;-64
2022/06/09 04:40:29;;;;;;;76.38;44.28;;;;;;;;;;5098229;28;20546;-63
2022/06/09 04:42:55;;;;;;;88.13;48.95;;;;;;;;;;5092626;28;21200;-62
2022/06/09 04:45:22;;;;;;;87.13;45.63;;;;;;;;;;5098675;28;20052;-63
2022/06/09 04:47:48;;;;;;;87.10;47.42;;;;;;;;;;5102418;28;20040;-64
2022/06/09 04:50:16;;;;;;;73.93;44.90;;;;;;;;;;5099750;28;20035;-64
2022/06/09 04:52:43;;;;;;;86.53;47.42;;;;;;;;;;5102674;28;20048;-63
2022/06/09 04:55:09;;;;;;;84.13;47.35;;;;;;;;;;5103248;28;20825;-63
2022/06/09 04:57:35;;;;;;;85.47;47.63;;;;;;;;;;5089131;28;20475;-63
2022/06/09 05:00:02;;;;;;;89.97;48.75;;;;;;;;;;5080726;28;20051;-63
2022/06/09 05:02:28;;;;;;;102.90;50.58;;;;;;;;;;5079624;28;20126;-63
2022/06/09 05:04:55;;;;;;;82.00;46.38;;;;;;;;;;5096678;28;21082;-63
2022/06/09 05:07:21;;;;;;;100.53;50.40;;;;;;;;;;5097185;28;20040;-63
2022/06/09 05:09:47;;;;;;;77.13;44.15;;;;;;;;;;5101955;28;20043;-63
2022/06/09 05:12:13;;;;;;;73.55;43.08;;;;;;;;;;5093854;28;20035;-63
2022/06/09 05:14:40;;;;;;;71.57;42.50;;;;;;;;;;5099491;28;20052;-63
2022/06/09 05:17:06;;;;;;;57.10;39.35;;;;;;;;;;5085240;28;20511;-63
2022/06/09 05:19:32;;;;;;;63.85;40.38;;;;;;;;;;5105031;28;20576;-63
2022/06/09 05:21:58;;;;;;;64.00;39.85;;;;;;;;;;5106015;28;20072;-63
2022/06/09 05:24:24;;;;;;;76.80;40.75;;;;;;;;;;5106133;28;20376;-64
2022/06/09 05:26:51;;;;;;;71.03;41.03;;;;;;;;;;5106034;28;20031;-63
2022/06/09 05:29:17;;;;;;;65.97;39.67;;;;;;;;;;5107667;28;20172;-63
2022/06/09 05:31:43;;;;;;;55.15;37.42;;;;;;;;;;5087979;28;20144;-63
2022/06/09 05:34:10;;;;;;;60.20;38.78;;;;;;;;;;5104640;28;20075;-63
2022/06/09 05:36:37;;;;;;;68.43;39.97;;;;;;;;;;5099498;28;20343;-74
2022/06/09 05:44:51;;;;;;;68.65;38.25;;;;;;;;;;5107179;28;20044;-63
2022/06/09 05:47:20;;;;;;;59.13;36.75;;;;;;;;;;5109510;28;20585;-63
2022/06/09 05:49:47;;;;;;;60.50;37.90;;;;;;;;;;5107827;28;20039;-63
2022/06/09 05:52:14;;;;;;;65.55;37.25;;;;;;;;;;5105604;28;20126;-63
2022/06/09 05:54:40;;;;;;;52.67;31.60;;;;;;;;;;5106467;28;20131;-63
2022/06/09 05:57:06;;;;;;;42.25;26.75;;;;;;;;;;5108314;28;20084;-63
2022/06/09 05:59:33;;;;;;;48.60;27.58;;;;;;;;;;5101342;28;20126;-63
2022/06/09 06:01:59;;;;;;;41.72;26.75;;;;;;;;;;5107419;28;20507;-63
2022/06/09 06:04:25;;;;;;;36.33;23.02;;;;;;;;;;5108404;28;20440;-64
2022/06/09 06:06:51;;;;;;;38.05;24.48;;;;;;;;;;5107183;28;20411;-63
2022/06/09 06:09:19;;;;;;;33.33;23.42;;;;;;;;;;5108682;28;20031;-63
2022/06/09 06:11:47;;;;;;;25.55;19.42;;;;;;;;;;5091122;28;20047;-63
2022/06/09 06:14:14;;;;;;;27.50;18.30;;;;;;;;;;5108013;28;20333;-63
2022/06/09 06:16:40;;;;;;;23.88;17.98;;;;;;;;;;5107576;28;20042;-63
2022/06/09 06:19:08;;;;;;;27.85;18.90;;;;;;;;;;5106325;28;20035;-63
2022/06/09 06:21:35;;;;;;;27.08;19.00;;;;;;;;;;5106575;28;20044;-63
2022/06/09 06:24:01;;;;;;;24.02;17.75;;;;;;;;;;5085798;28;20077;-63
2022/06/09 06:26:27;;;;;;;25.23;18.88;;;;;;;;;;5108855;28;20047;-63
2022/06/09 06:28:54;;;;;;;25.65;17.58;;;;;;;;;;5091150;28;20047;-63
2022/06/09 06:31:20;;;;;;;26.83;17.60;;;;;;;;;;5105261;28;20035;-63
2022/06/09 06:33:46;;;;;;;23.23;15.75;;;;;;;;;;5107313;28;20127;-63
2022/06/09 06:36:12;;;;;;;22.10;15.75;;;;;;;;;;5108061;28;20054;-64
2022/06/09 06:38:39;;;;;;;18.70;13.63;;;;;;;;;;5108560;28;20044;-63
2022/06/09 06:41:06;;;;;;;20.35;13.80;;;;;;;;;;5065887;28;20039;-63
2022/06/09 06:43:32;;;;;;;20.70;13.43;;;;;;;;;;5089440;28;20087;-64
2022/06/09 06:46:00;;;;;;;23.02;14.38;;;;;;;;;;5098691;28;20069;-63
2022/06/09 06:48:26;;;;;;;23.23;13.90;;;;;;;;;;5098544;28;20130;-63
2022/06/09 06:50:52;;;;;;;19.88;13.15;;;;;;;;;;5106405;28;20108;-63
2022/06/09 06:53:18;;;;;;;17.05;12.32;;;;;;;;;;5087255;28;20081;-63
2022/06/09 06:55:44;;;;;;;11.15;9.02;;;;;;;;;;5108632;28;20448;-63
2022/06/09 06:58:11;;;;;;;17.08;7.88;;;;;;;;;;5106957;28;20127;-63
2022/06/09 07:00:37;;;;;;;13.43;8.18;;;;;;;;;;5105095;28;20494;-64
2022/06/09 07:03:04;;;;;;;12.48;7.60;;;;;;;;;;5105873;28;20036;-63
2022/06/09 07:05:30;;;;;;;17.48;5.60;;;;;;;;;;5104357;28;20505;-63
2022/06/09 07:07:57;;;;;;;9.23;4.22;;;;;;;;;;5105018;28;20105;-63
2022/06/09 07:10:24;;;;;;;13.07;3.92;;;;;;;;;;5107570;28;20125;-63
2022/06/09 07:12:50;;;;;;;11.15;3.92;;;;;;;;;;5086191;28;20130;-64
2022/06/09 07:15:16;;;;;;;9.63;3.55;;;;;;;;;;5105392;28;20123;-64
2022/06/09 07:17:43;;;;;;;7.80;3.22;;;;;;;;;;5107259;28;20101;-64
2022/06/09 07:20:10;;;;;;;11.80;3.30;;;;;;;;;;5104154;28;20039;-64
2022/06/09 07:22:37;;;;;;;8.85;3.03;;;;;;;;;;5105197;28;20150;-64
2022/06/09 07:25:03;;;;;;;6.57;2.80;;;;;;;;;;5106249;28;20039;-63
2022/06/09 07:27:30;;;;;;;13.07;3.30;;;;;;;;;;5104525;28;20046;-63
2022/06/09 07:29:56;;;;;;;9.82;2.85;;;;;;;;;;5102989;28;20040;-64
2022/06/09 07:32:23;;;;;;;8.90;3.05;;;;;;;;;;5103388;28;20376;-64
2022/06/09 07:34:49;;;;;;;10.77;3.25;;;;;;;;;;5105324;28;20047;-64
2022/06/09 07:37:16;;;;;;;13.10;2.75;;;;;;;;;;5105710;28;20043;-64
2022/06/09 07:39:43;;;;;;;18.30;3.85;;;;;;;;;;5106543;28;20051;-64
2022/06/09 07:42:09;;;;;;;7.22;1.90;;;;;;;;;;5103901;28;20036;-63
2022/06/09 07:44:36;;;;;;;10.98;2.95;;;;;;;;;;5106096;28;20055;-64
2022/06/09 07:47:02;;;;;;;16.00;3.00;;;;;;;;;;5106217;28;20091;-63
2022/06/09 07:49:28;;;;;;;11.98;2.40;;;;;;;;;;5103080;28;20521;-63
2022/06/09 07:51:54;;;;;;;13.40;3.08;;;;;;;;;;5104951;28;20035;-63
2022/06/09 07:54:20;;;;;;;7.85;2.72;;;;;;;;;;5103814;28;20050;-64
2022/06/09 07:56:47;;;;;;;10.73;2.53;;;;;;;;;;5106534;28;20050;-63
2022/06/09 07:59:13;;;;;;;10.45;2.88;;;;;;;;;;5105637;28;20131;-63
2022/06/09 08:01:39;;;;;;;11.65;2.53;;;;;;;;;;5103438;28;20053;-63
2022/06/09 08:04:05;;;;;;;14.18;2.47;;;;;;;;;;5106251;28;20036;-63
2022/06/09 08:06:31;;;;;;;12.85;3.20;;;;;;;;;;5103895;28;20499;-63
2022/06/09 08:08:59;;;;;;;12.02;2.60;;;;;;;;;;5087678;28;20052;-63
2022/06/09 08:11:27;;;;;;;10.43;3.00;;;;;;;;;;5100609;28;20207;-64
2022/06/09 08:13:55;;;;;;;11.60;2.50;;;;;;;;;;5088450;28;20084;-63
2022/06/09 08:16:21;;;;;;;15.05;2.38;;;;;;;;;;5101133;28;20526;-64
2022/06/09 08:18:48;;;;;;;9.90;2.58;;;;;;;;;;5108219;28;20047;-63
2022/06/09 08:21:14;;;;;;;9.75;2.70;;;;;;;;;;5103352;28;20043;-64
2022/06/09 08:23:40;;;;;;;10.07;2.42;;;;;;;;;;5104845;28;20474;-63
2022/06/09 08:26:06;;;;;;;11.90;2.58;;;;;;;;;;5106236;28;20057;-64
2022/06/09 08:28:32;;;;;;;11.52;2.75;;;;;;;;;;5104380;28;20042;-64
2022/06/09 08:30:59;;;;;;;11.85;2.92;;;;;;;;;;5106655;28;20407;-64
2022/06/09 08:33:26;;;;;;;15.55;4.00;;;;;;;;;;5104177;28;20050;-64
2022/06/09 08:35:53;;;;;;;13.35;2.60;;;;;;;;;;5106470;28;20092;-63
2022/06/09 08:38:20;;;;;;;9.18;2.50;;;;;;;;;;5102865;28;20051;-63
2022/06/09 08:40:53;;;;;;;8.57;2.38;;;;;;;;;;5107189;28;20537;-64
2022/06/09 08:43:19;;;;;;;;;;;;;;;;;;5107524;28;20039;-64
2022/06/09 08:45:46;;;;;;;9.82;2.72;;;;;;;;;;5109882;28;19972;-63
2022/06/09 08:48:18;;;;;;;18.45;2.85;;;;;;;;;;5107103;28;20058;-63
2022/06/09 08:50:48;;;;;;;15.15;2.70;;;;;;;;;;5107309;28;20036;-64
2022/06/09 08:53:32;;;;;;;8.02;2.15;;;;;;;;;;5105534;28;20467;-64
2022/06/09 08:56:00;;;;;;;11.30;2.33;;;;;;;;;;5110589;28;20048;-63
2022/06/09 08:58:36;;;;;;;17.38;3.10;;;;;;;;;;5106310;28;20051;-63
2022/06/09 09:01:05;;;;;;;12.65;2.75;;;;;;;;;;5108122;28;20055;-63
2022/06/09 09:03:34;;;;;;;17.58;2.40;;;;;;;;;;5107335;28;20047;-64
2022/06/09 09:06:06;;;;;;;11.88;2.58;;;;;;;;;;5104969;28;20340;-63
2022/06/09 09:08:33;;;;;;;13.70;2.42;;;;;;;;;;5111177;28;20071;-63
2022/06/09 09:11:14;;;;;;;10.57;2.17;;;;;;;;;;5103784;28;20040;-63
2022/06/09 09:13:51;;;;;;;11.63;2.65;;;;;;;;;;5106340;28;20109;-63
2022/06/09 09:16:20;;;;;;;11.48;2.13;;;;;;;;;;5105594;28;20036;-64
2022/06/09 09:18:53;;;;;;;9.32;2.22;;;;;;;;;;5091591;28;20474;-63
2022/06/09 09:21:28;;;;;;;12.35;2.33;;;;;;;;;;5088014;28;20403;-63
2022/06/09 09:24:00;;;;;;;9.95;2.08;;;;;;;;;;5109471;28;20036;-63
2022/06/09 09:26:26;;;;;;;11.15;1.77;;;;;;;;;;5107205;28;20130;-63
2022/06/09 09:28:55;;;;;;;9.98;1.90;;;;;;;;;;5109866;28;20048;-63
2022/06/09 09:31:28;;;;;;;10.07;2.22;;;;;;;;;;5109706;28;20046;-63
2022/06/09 09:33:56;;;;;;;13.25;2.35;;;;;;;;;;5106812;28;20387;-63
2022/06/09 09:36:24;;;;;;;12.02;3.28;;;;;;;;;;5110015;28;20455;-63
2022/06/09 09:38:54;;;;;;;15.82;2.55;;;;;;;;;;5109422;28;20051;-63
2022/06/09 09:41:29;;;;;;;13.73;2.65;;;;;;;;;;5107841;28;20039;-64
2022/06/09 09:43:56;;;;;;;8.15;1.75;;;;;;;;;;5105254;28;20043;-64
2022/06/09 09:46:31;;;;;;;13.73;2.97;;;;;;;;;;5110123;28;20048;-63
2022/06/09 09:48:58;;;;;;;10.13;1.92;;;;;;;;;;5105856;28;20044;-64
2022/06/09 09:51:36;;;;;;;10.52;1.95;;;;;;;;;;5108772;28;20972;-64
2022/06/09 09:54:16;;;;;;;10.82;2.20;;;;;;;;;;5105067;28;20052;-64
2022/06/09 09:56:42;;;;;;;10.50;2.40;;;;;;;;;;5109753;28;20089;-64
2022/06/09 09:59:23;;;;;;;10.20;1.80;;;;;;;;;;5105978;28;20130;-64
2022/06/09 10:10:16;;;;;;;9.20;2.05;;;;;;;;;;5105173;28;20112;-63
2022/06/09 10:12:42;;;;;;;10.43;2.15;;;;;;;;;;5107319;28;20400;-64
2022/06/09 10:15:09;;;;;;;10.52;2.08;;;;;;;;;;5098580;28;20167;-63
2022/06/09 10:17:43;;;;;;;9.82;2.22;;;;;;;;;;5100758;28;20047;-63
2022/06/09 10:20:26;;;;;;;12.15;2.22;;;;;;;;;;5107383;28;20426;-63
2022/06/09 10:23:01;;;;;;;6.87;1.67;;;;;;;;;;5104345;28;20096;-64
2022/06/09 10:25:33;;;;;;;14.52;1.92;;;;;;;;;;5104380;28;20341;-64
2022/06/09 10:28:04;;;;;;;11.82;2.30;;;;;;;;;;5106735;28;20054;-63
2022/06/09 10:30:36;;;;;;;9.38;2.00;;;;;;;;;;5099348;28;20491;-64
2022/06/09 10:33:08;;;;;;;5.93;1.27;;;;;;;;;;5104792;28;20035;-63
2022/06/09 10:35:48;;;;;;;6.63;1.85;;;;;;;;;;5107062;28;20051;-64
2022/06/09 10:38:21;;;;;;;7.85;1.50;;;;;;;;;;5105597;28;20543;-64
2022/06/09 10:40:49;;;;;;;7.50;1.75;;;;;;;;;;5109716;28;20046;-64
2022/06/09 10:43:21;;;;;;;9.75;1.60;;;;;;;;;;5087728;28;20100;-64
2022/06/09 10:46:01;;;;;;;13.95;1.98;;;;;;;;;;5109386;28;20035;-64
2022/06/09 10:57:12;;;;;;;8.27;1.88;;;;;;;;;;5081880;28;20353;-62
2022/06/09 10:59:44;;;;;;;11.77;1.70;;;;;;;;;;5107535;28;20043;-62
2022/06/09 11:02:14;;;;;;;7.13;1.50;;;;;;;;;;5106882;28;20048;-62
2022/06/09 11:04:40;;;;;;;6.97;1.60;;;;;;;;;;5105374;28;21507;-62
2022/06/09 11:07:19;;;;;;;7.53;1.50;;;;;;;;;;5106187;28;20455;-62
2022/06/09 11:09:45;;;;;;;6.47;1.55;;;;;;;;;;5103858;28;20050;-62
2022/06/09 11:12:18;;;;;;;7.93;1.70;;;;;;;;;;5108042;28;20067;-62
2022/06/09 11:14:59;;;;;;;12.45;1.80;;;;;;;;;;5103506;28;20560;-62
2022/06/09 11:17:31;;;;;;;8.93;1.70;;;;;;;;;;5104592;28;20039;-62
2022/06/09 11:20:04;;;;;;;9.63;1.92;;;;;;;;;;5105283;28;20040;-62
2022/06/09 11:22:30;;;;;;;;;;;;;;;;;;5107372;28;20232;-62
2022/06/09 11:25:21;;;;;;;8.48;1.92;;;;;;;;;;5106285;28;19920;-62
2022/06/09 11:27:52;;;;;;;14.02;2.33;;;;;;;;;;5107438;28;20044;-62
2022/06/09 11:30:18;;;;;;;7.50;1.52;;;;;;;;;;5106416;28;20051;-62
2022/06/09 11:32:50;;;;;;;9.80;2.33;;;;;;;;;;5107070;28;20139;-62
2022/06/09 11:35:33;;;;;;;8.77;1.88;;;;;;;;;;5107885;28;20058;-62
2022/06/09 11:38:07;;;;;;;10.40;2.30;;;;;;;;;;5105932;28;20040;-62
2022/06/09 11:40:39;;;;;;;10.57;2.20;;;;;;;;;;5107196;28;20687;-61
2022/06/09 11:43:05;;;;;;;7.93;2.13;;;;;;;;;;5106626;28;20047;-62
2022/06/09 11:45:37;;;;;;;11.35;2.25;;;;;;;;;;5101583;28;20087;-62
2022/06/09 11:48:05;;;;;;;6.40;1.60;;;;;;;;;;5100376;28;20039;-62
2022/06/09 11:50:35;;;;;;;10.27;2.10;;;;;;;;;;5104665;28;20180;-62
2022/06/09 11:53:02;;;;;;;8.57;2.20;;;;;;;;;;5080243;28;20043;-62
2022/06/09 11:55:57;;;;;;;6.82;1.70;;;;;;;;;;5104810;28;20474;-62
2022/06/09 11:58:43;;;;;;;12.95;2.88;;;;;;;;;;5082966;28;20062;-62
2022/06/09 12:01:16;;;;;;;12.30;2.65;;;;;;;;;;5098472;28;20115;-62
2022/06/09 12:03:56;;;;;;;9.52;2.20;;;;;;;;;;5105957;28;20036;-64
2022/06/09 12:06:27;;;;;;;8.45;2.13;;;;;;;;;;5087076;28;20232;-64
2022/06/09 12:08:59;;;;;;;10.18;2.15;;;;;;;;;;5105396;28;20027;-64
2022/06/09 12:11:45;;;;;;;9.00;2.13;;;;;;;;;;5104927;28;20031;-64
2022/06/09 12:14:19;;;;;;;10.02;2.22;;;;;;;;;;5098532;28;20135;-64
2022/06/09 12:16:54;;;;;;;9.82;1.65;;;;;;;;;;5102549;28;20165;-64
2022/06/09 12:19:22;;;;;;;10.10;2.35;;;;;;;;;;5111520;28;20043;-64
2022/06/09 12:21:50;;;;;;;12.65;2.05;;;;;;;;;;5108686;28;20421;-64
2022/06/09 12:24:17;;;;;;;10.18;1.77;;;;;;;;;;5093548;28;20083;-64
2022/06/09 12:26:43;;;;;;;9.50;1.60;;;;;;;;;;5110033;28;20036;-64
2022/06/09 12:29:18;;;;;;;7.18;1.75;;;;;;;;;;5089417;28;20048;-64
2022/06/09 12:32:04;;;;;;;8.57;1.77;;;;;;;;;;5108172;28;20054;-63
2022/06/09 12:34:30;;;;;;;12.15;1.90;;;;;;;;;;5091531;28;20044;-63
2022/06/09 12:37:00;;;;;;;7.00;1.80;;;;;;;;;;5094439;28;20404;-63
2022/06/09 12:39:30;;;;;;;7.53;1.50;;;;;;;;;;5108703;28;20499;-63
2022/06/09 12:41:58;;;;;;;6.97;1.45;;;;;;;;;;5108767;28;20093;-72
2022/06/09 12:44:26;;;;;;;7.63;1.88;;;;;;;;;;5087381;28;20448;-64
2022/06/09 12:46:56;;;;;;;9.98;2.38;;;;;;;;;;5078569;28;20064;-64
2022/06/09 12:49:24;;;;;;;7.63;1.80;;;;;;;;;;5106689;28;20039;-64
2022/06/09 12:51:52;;;;;;;7.60;1.58;;;;;;;;;;5105998;28;20119;-62
2022/06/09 12:54:20;;;;;;;6.95;1.60;;;;;;;;;;5096125;28;20048;-62
2022/06/09 12:57:06;;;;;;;8.90;1.83;;;;;;;;;;5100833;28;20056;-62
2022/06/09 12:59:33;;;;;;;7.85;1.63;;;;;;;;;;5108881;28;20063;-62
2022/06/09 13:02:03;;;;;;;11.38;2.28;;;;;;;;;;5094898;28;20080;-62
2022/06/09 13:04:32;;;;;;;6.43;1.40;;;;;;;;;;5094039;28;20059;-62
2022/06/09 13:07:00;;;;;;;6.80;1.75;;;;;;;;;;5094957;28;20387;-62
2022/06/09 13:09:27;;;;;;;6.75;1.67;;;;;;;;;;5094955;28;20138;-62
2022/06/09 13:14:41;;;;;;;10.45;2.22;;;;;;;;;;5094489;28;20047;-62
2022/06/09 13:17:13;;;;;;;8.57;2.08;;;;;;;;;;5095079;28;20067;-62
2022/06/09 13:19:39;;;;;;;5.57;1.48;;;;;;;;;;5097863;28;20044;-62
2022/06/09 13:22:07;;;;;;;10.30;1.92;;;;;;;;;;5094354;28;20488;-62
2022/06/09 13:24:35;;;;;;;8.93;2.20;;;;;;;;;;5092832;28;20079;-62
2022/06/09 13:27:02;;;;;;;9.18;1.70;;;;;;;;;;5103362;28;20052;-62
2022/06/09 13:29:31;;;;;;;7.57;1.67;;;;;;;;;;5094544;28;20043;-62
2022/06/09 13:32:18;;;;;;;6.47;1.48;;;;;;;;;;5093445;28;20391;-62
2022/06/09 13:34:45;;;;;;;9.48;1.92;;;;;;;;;;5094063;28;20097;-62
2022/06/09 13:37:15;;;;;;;7.65;1.60;;;;;;;;;;5101380;28;20043;-62
2022/06/09 13:39:46;;;;;;;8.45;1.98;;;;;;;;;;5102882;28;20149;-62
2022/06/09 13:42:17;;;;;;;9.95;1.88;;;;;;;;;;5098834;28;20514;-61
2022/06/09 13:44:48;;;;;;;8.45;1.65;;;;;;;;;;5114099;28;20131;-62
2022/06/09 13:47:16;;;;;;;7.68;1.65;;;;;;;;;;5112354;28;20549;-62
2022/06/09 13:49:45;;;;;;;7.82;1.52;;;;;;;;;;5110420;28;20479;-61
2022/06/09 13:52:27;;;;;;;7.55;1.48;;;;;;;;;;5108434;28;20407;-62
2022/06/09 13:54:55;;;;;;;8.70;1.50;;;;;;;;;;5103612;28;20062;-62
2022/06/09 13:57:24;;;;;;;7.03;1.48;;;;;;;;;;5107169;28;20525;-61
2022/06/09 13:59:50;;;;;;;7.20;1.42;;;;;;;;;;5082833;28;20127;-60
2022/06/09 14:02:19;;;;;;;6.43;1.50;;;;;;;;;;5106808;28;20436;-62
2022/06/09 14:04:45;;;;;;;5.70;1.55;;;;;;;;;;5096270;28;20130;-62
2022/06/09 14:07:15;;;;;;;10.77;2.00;;;;;;;;;;5079045;28;20047;-62
2022/06/09 14:09:41;;;;;;;11.70;2.38;;;;;;;;;;5095727;28;20040;-62
2022/06/09 14:12:08;;;;;;;10.98;2.28;;;;;;;;;;5093612;28;20101;-62
2022/06/09 14:14:35;;;;;;;9.77;2.17;;;;;;;;;;5074130;28;20184;-62
2022/06/09 14:17:01;;;;;;;8.43;1.95;;;;;;;;;;5101389;28;20090;-62
2022/06/09 14:19:28;;;;;;;8.25;1.85;;;;;;;;;;5074960;28;20051;-62
2022/06/09 14:21:54;;;;;;;11.70;2.00;;;;;;;;;;5092728;28;20035;-62
2022/06/09 14:24:21;;;;;;;15.68;2.65;;;;;;;;;;5093158;28;20484;-62
2022/06/09 14:26:49;;;;;;;11.25;2.55;;;;;;;;;;5093040;28;20036;-61
2022/06/09 14:29:15;;;;;;;8.35;2.13;;;;;;;;;;5097150;28;20044;-62
2022/06/09 14:31:42;;;;;;;9.70;2.15;;;;;;;;;;5074828;28;20040;-62
2022/06/09 14:34:08;;;;;;;9.77;2.72;;;;;;;;;;5093679;28;20047;-62
2022/06/09 14:36:35;;;;;;;10.55;2.90;;;;;;;;;;5091332;28;20051;-61
2022/06/09 14:39:03;;;;;;;11.35;2.60;;;;;;;;;;5096102;28;20464;-62
2022/06/09 14:41:29;;;;;;;12.65;3.08;;;;;;;;;;5092831;28;20430;-61
2022/06/09 14:43:55;;;;;;;9.98;2.53;;;;;;;;;;5091885;28;20080;-62
2022/06/09 14:46:24;;;;;;;10.25;2.28;;;;;;;;;;5092805;28;20074;-61
2022/06/09 14:48:51;;;;;;;11.35;2.42;;;;;;;;;;5094916;28;20514;-62
2022/06/09 14:51:17;;;;;;;11.18;2.65;;;;;;;;;;5092355;28;20040;-62
2022/06/09 14:53:43;;;;;;;13.07;2.40;;;;;;;;;;5099583;28;20097;-62
2022/06/09 14:56:09;;;;;;;11.32;2.22;;;;;;;;;;5078786;28;20126;-61
2022/06/09 14:58:35;;;;;;;13.10;2.40;;;;;;;;;;5105919;28;20051;-61
2022/06/09 15:01:02;;;;;;;11.23;2.35;;;;;;;;;;5103285;28;20043;-61